Time;durP1;ratioP1;P1;durP2;ratioP2;P2;SDS_P1;SDS_P2;PMS_P1;PMS_P2;Temp;Humidity;BMP_temperature;BMP_pressure;BME280_temperature;BME280_humidity;BME280_pressure;Samples;Min_cycle;Max_cycle;Signal;HPM_P1;HPM_P2
2022/11/16 00:01:30;;;;;;;4.05;3.25;;;17.00;99.90;;;;;;5053028;28;20437;-79
2022/11/16 00:03:58;;;;;;;4.32;3.50;;;17.00;99.90;;;;;;5052478;28;20493;-78
2022/11/16 00:06:24;;;;;;;4.20;3.08;;;17.10;99.90;;;;;;5051293;28;20074;-79
2022/11/16 00:11:42;;;;;;;5.03;3.75;;;17.10;99.80;;;;;;5053198;28;20064;-78
2022/11/16 00:14:07;;;;;;;4.68;3.50;;;17.10;99.90;;;;;;5052794;28;20033;-79
2022/11/16 00:16:33;;;;;;;3.75;3.35;;;17.10;99.90;;;;;;5052506;28;20059;-79
2022/11/16 00:19:02;;;;;;;5.22;3.47;;;17.10;99.90;;;;;;5052914;28;20043;-79
2022/11/16 00:21:28;;;;;;;6.43;3.22;;;17.10;99.80;;;;;;5052468;28;20066;-79
2022/11/16 00:23:54;;;;;;;3.40;2.85;;;17.00;99.70;;;;;;5055588;28;20027;-74
2022/11/16 00:26:20;;;;;;;3.03;2.40;;;17.10;99.70;;;;;;5056545;28;20032;-75
2022/11/16 00:28:46;;;;;;;2.47;2.25;;;17.10;99.60;;;;;;5056730;28;20040;-76
2022/11/16 00:31:12;;;;;;;3.20;2.22;;;17.10;99.40;;;;;;5056744;28;20369;-76
2022/11/16 00:33:38;;;;;;;2.78;1.67;;;17.10;99.20;;;;;;5056790;28;20154;-76
2022/11/16 00:36:08;;;;;;;2.40;1.30;;;17.10;99.00;;;;;;5056350;28;20040;-77
2022/11/16 00:38:34;;;;;;;3.00;1.48;;;17.10;99.00;;;;;;5056255;28;20489;-76
2022/11/16 00:40:59;;;;;;;2.47;1.20;;;17.10;98.90;;;;;;5056215;28;20098;-76
2022/11/16 00:43:25;;;;;;;2.67;1.17;;;17.00;98.80;;;;;;5056561;28;20036;-76
2022/11/16 00:45:51;;;;;;;2.22;1.10;;;17.10;98.60;;;;;;5056303;28;20078;-76
2022/11/16 00:48:17;;;;;;;2.45;0.80;;;17.00;98.50;;;;;;5055134;28;20053;-77
2022/11/16 00:50:46;;;;;;;2.47;1.15;;;17.10;98.50;;;;;;5056007;28;20040;-75
2022/11/16 00:53:13;;;;;;;2.45;0.82;;;17.10;98.40;;;;;;5056244;28;20025;-76
2022/11/16 00:55:39;;;;;;;2.88;1.35;;;17.00;98.30;;;;;;5056498;28;20063;-76
2022/11/16 00:58:05;;;;;;;2.13;1.02;;;17.00;98.20;;;;;;5055922;28;20041;-76
2022/11/16 01:00:30;;;;;;;2.08;1.05;;;17.00;98.20;;;;;;5056324;28;20450;-78
2022/11/16 01:02:56;;;;;;;3.13;1.00;;;16.90;98.10;;;;;;5056080;28;20041;-79
2022/11/16 01:05:22;;;;;;;3.72;1.00;;;16.90;98.20;;;;;;5055656;28;20050;-76
2022/11/16 01:07:49;;;;;;;3.17;1.00;;;17.00;98.10;;;;;;5055853;28;20021;-76
2022/11/16 01:10:17;;;;;;;1.80;0.90;;;17.00;98.00;;;;;;5055927;28;20036;-75
2022/11/16 01:12:44;;;;;;;1.70;0.90;;;17.00;97.90;;;;;;5055845;28;20017;-78
2022/11/16 01:15:10;;;;;;;3.05;0.95;;;17.00;97.80;;;;;;5055733;28;20037;-79
2022/11/16 01:17:40;;;;;;;1.88;0.82;;;16.90;97.70;;;;;;5055714;28;20030;-76
2022/11/16 01:20:10;;;;;;;3.35;1.05;;;17.00;97.80;;;;;;5054058;28;20534;-76
2022/11/16 01:22:37;;;;;;;2.42;0.95;;;16.90;97.60;;;;;;5055550;28;20013;-78
2022/11/16 01:25:04;;;;;;;1.58;0.70;;;16.90;97.60;;;;;;5055643;28;20052;-78
2022/11/16 01:27:30;;;;;;;1.52;0.68;;;16.90;97.60;;;;;;5055389;28;20052;-79
2022/11/16 01:29:55;;;;;;;1.77;0.93;;;16.90;97.50;;;;;;5055379;28;20056;-78
2022/11/16 01:32:21;;;;;;;2.22;0.70;;;16.90;97.60;;;;;;5055465;28;20115;-79
2022/11/16 01:34:46;;;;;;;2.70;0.70;;;16.90;97.50;;;;;;5055213;28;20060;-79
2022/11/16 01:37:12;;;;;;;3.20;0.95;;;16.90;97.40;;;;;;5055162;28;20046;-79
2022/11/16 01:39:38;;;;;;;2.13;1.08;;;16.90;97.40;;;;;;5055266;28;20111;-79
2022/11/16 01:42:04;;;;;;;3.53;0.88;;;16.80;97.40;;;;;;5055136;28;20025;-79
2022/11/16 01:44:32;;;;;;;1.55;0.65;;;16.90;97.40;;;;;;5055320;28;20021;-78
2022/11/16 01:47:07;;;;;;;2.22;0.70;;;16.80;97.30;;;;;;5055065;28;20047;-80
2022/11/16 01:49:36;;;;;;;2.85;0.77;;;16.80;97.30;;;;;;5054836;28;20035;-79
2022/11/16 01:52:07;;;;;;;2.28;0.60;;;16.80;97.30;;;;;;5054921;28;20028;-79
2022/11/16 01:54:36;;;;;;;3.03;1.10;;;16.80;97.20;;;;;;5055029;28;20045;-79
2022/11/16 01:57:05;;;;;;;3.30;0.80;;;16.80;97.20;;;;;;5054743;28;20549;-80
2022/11/16 01:59:32;;;;;;;3.53;0.80;;;16.80;97.30;;;;;;5055066;28;20025;-80
2022/11/16 02:01:58;;;;;;;3.78;1.00;;;16.80;97.20;;;;;;5054813;28;20021;-80
2022/11/16 02:04:24;;;;;;;4.78;0.90;;;16.80;97.20;;;;;;5054317;28;20037;-79
2022/11/16 02:07:07;;;;;;;2.42;0.73;;;16.80;97.10;;;;;;5054759;28;20493;-80
2022/11/16 02:09:57;;;;;;;2.28;1.00;;;16.80;97.10;;;;;;5054904;28;20481;-80
2022/11/16 02:12:48;;;;;;;4.05;1.00;;;16.80;97.10;;;;;;5054654;28;20051;-79
2022/11/16 02:15:36;;;;;;;4.63;0.95;;;16.80;97.20;;;;;;5054652;28;20115;-80
2022/11/16 02:18:30;;;;;;;3.05;0.95;;;16.80;97.00;;;;;;5054356;28;20021;-80
2022/11/16 02:21:27;;;;;;;3.17;0.70;;;16.80;97.00;;;;;;5054726;28;20029;-80
2022/11/16 02:24:25;;;;;;;4.28;0.90;;;16.70;97.00;;;;;;5054420;28;20017;-75
2022/11/16 02:27:09;;;;;;;5.10;1.13;;;16.80;97.10;;;;;;5054975;28;20094;-74
2022/11/16 02:29:40;;;;;;;2.30;0.63;;;16.80;96.90;;;;;;5054551;28;20024;-74
2022/11/16 02:32:10;;;;;;;2.00;0.90;;;16.80;97.00;;;;;;5054016;28;20063;-74
2022/11/16 02:34:45;;;;;;;2.05;1.00;;;16.70;97.00;;;;;;5054682;28;20094;-74
2022/11/16 02:37:13;;;;;;;1.92;0.70;;;16.70;96.80;;;;;;5054231;28;20020;-74
2022/11/16 02:39:40;;;;;;;3.97;1.13;;;16.70;96.80;;;;;;5054334;28;20060;-74
2022/11/16 02:42:14;;;;;;;3.10;0.75;;;16.70;96.70;;;;;;5054361;28;20147;-74
2022/11/16 02:44:46;;;;;;;5.10;1.10;;;16.70;96.60;;;;;;5054898;28;20024;-78
2022/11/16 02:47:17;;;;;;;3.15;1.35;;;16.70;96.60;;;;;;5053353;28;20100;-79
2022/11/16 02:49:48;;;;;;;4.45;1.00;;;16.70;96.50;;;;;;5053969;28;20500;-80
2022/11/16 02:52:14;;;;;;;3.58;1.00;;;16.80;96.50;;;;;;5054160;28;20063;-76
2022/11/16 02:54:40;;;;;;;3.95;0.75;;;16.70;96.60;;;;;;5053597;28;20041;-76
2022/11/16 02:57:05;;;;;;;7.80;1.40;;;16.60;96.40;;;;;;5053966;28;20027;-78
2022/11/16 02:59:45;;;;;;;2.65;0.77;;;16.70;96.40;;;;;;5053636;28;20053;-78
2022/11/16 03:02:28;;;;;;;4.82;1.08;;;16.60;96.30;;;;;;5053588;28;20044;-76
2022/11/16 03:05:01;;;;;;;3.72;0.80;;;16.60;96.10;;;;;;5048538;28;20032;-80
2022/11/16 03:07:34;;;;;;;6.72;1.13;;;16.60;96.10;;;;;;5046565;28;20025;-80
2022/11/16 03:10:00;;;;;;;3.65;1.05;;;16.60;96.00;;;;;;5036165;28;20068;-80
2022/11/16 03:12:30;;;;;;;4.05;1.00;;;16.60;96.20;;;;;;5044702;28;20024;-81
2022/11/16 03:15:03;;;;;;;3.35;0.90;;;16.60;96.00;;;;;;5041417;28;20086;-80
2022/11/16 03:17:36;;;;;;;1.95;1.15;;;16.60;96.00;;;;;;5038289;28;20025;-80
2022/11/16 03:20:14;;;;;;;4.18;0.90;;;16.60;95.80;;;;;;5033050;28;20079;-78
2022/11/16 03:22:45;;;;;;;5.72;0.90;;;16.60;95.80;;;;;;5033390;28;20025;-79
2022/11/16 03:25:14;;;;;;;2.65;0.95;;;16.50;95.80;;;;;;5033316;28;20032;-80
2022/11/16 03:27:50;;;;;;;5.03;0.90;;;16.60;95.60;;;;;;5033325;28;20100;-80
2022/11/16 03:30:22;;;;;;;4.15;1.40;;;16.50;95.50;;;;;;5031663;28;20052;-79
2022/11/16 03:33:02;;;;;;;5.05;1.02;;;16.50;95.40;;;;;;5033502;28;20064;-77
2022/11/16 03:35:30;;;;;;;7.25;1.15;;;16.50;95.30;;;;;;5033197;28;20046;-79
2022/11/16 03:37:58;;;;;;;2.50;0.60;;;16.50;95.10;;;;;;5032007;28;20386;-80
2022/11/16 03:40:27;;;;;;;5.13;0.85;;;16.50;95.10;;;;;;5033171;28;20017;-80
2022/11/16 03:42:54;;;;;;;4.63;0.98;;;16.40;95.20;;;;;;5033255;28;20022;-80
2022/11/16 03:45:20;;;;;;;6.03;1.30;;;16.40;95.10;;;;;;5032739;28;20032;-80
2022/11/16 03:47:46;;;;;;;2.97;0.80;;;16.40;94.90;;;;;;5033083;28;20029;-79
2022/11/16 03:50:12;;;;;;;6.72;1.17;;;16.40;94.80;;;;;;5033147;28;20040;-77
2022/11/16 03:52:37;;;;;;;6.53;1.13;;;16.40;94.80;;;;;;5031928;28;20029;-81
2022/11/16 03:55:04;;;;;;;4.93;1.00;;;16.40;94.80;;;;;;5033238;28;20466;-78
2022/11/16 03:57:29;;;;;;;3.65;1.00;;;16.30;94.70;;;;;;5030894;28;20022;-80
2022/11/16 03:59:55;;;;;;;4.13;0.82;;;16.40;94.70;;;;;;5032644;28;20517;-78
2022/11/16 04:02:20;;;;;;;2.75;1.10;;;16.40;94.80;;;;;;5032970;28;20022;-79
2022/11/16 04:24:24;;;;;;;3.72;0.98;;;16.10;94.60;;;;;;5032377;28;20086;-75
2022/11/16 04:29:40;;;;;;;7.70;1.23;;;16.00;94.60;;;;;;5032711;28;20111;-75
2022/11/16 04:37:53;;;;;;;4.80;1.00;;;16.00;94.60;;;;;;5032862;28;20121;-75
2022/11/16 04:40:24;;;;;;;4.82;1.25;;;16.00;94.60;;;;;;5032356;28;20037;-74
2022/11/16 04:42:55;;;;;;;7.45;1.50;;;16.00;94.70;;;;;;5032363;28;20030;-76
2022/11/16 04:48:05;;;;;;;7.05;1.75;;;15.90;94.80;;;;;;5032982;28;20041;-76
2022/11/16 04:50:31;;;;;;;2.70;1.67;;;15.90;94.90;;;;;;5032389;28;20022;-74
2022/11/16 04:52:57;;;;;;;6.10;1.73;;;15.80;94.90;;;;;;5031778;28;20049;-73
2022/11/16 04:55:23;;;;;;;4.82;1.20;;;15.80;94.90;;;;;;5032391;28;20068;-74
2022/11/16 04:57:48;;;;;;;7.53;2.03;;;15.80;95.10;;;;;;5030928;28;20053;-74
2022/11/16 05:00:15;;;;;;;5.68;2.60;;;15.70;95.00;;;;;;5032525;28;20030;-73
2022/11/16 05:02:40;;;;;;;6.47;2.05;;;15.80;94.90;;;;;;5032528;28;20040;-74
2022/11/16 05:05:06;;;;;;;6.90;2.13;;;15.80;94.90;;;;;;5030860;28;20124;-78
2022/11/16 05:07:32;;;;;;;8.18;2.10;;;15.70;95.10;;;;;;5032208;28;20025;-75
2022/11/16 05:09:58;;;;;;;9.25;1.73;;;15.80;95.10;;;;;;5035283;28;20540;-75
2022/11/16 05:12:26;;;;;;;5.65;1.83;;;15.70;95.20;;;;;;5034758;28;20501;-76
2022/11/16 05:14:54;;;;;;;6.85;2.13;;;15.80;95.20;;;;;;5035942;28;20029;-75
2022/11/16 05:17:20;;;;;;;7.53;2.13;;;15.80;95.20;;;;;;5035647;28;20028;-73
2022/11/16 05:22:30;;;;;;;5.78;2.63;;;15.70;95.20;;;;;;5035878;28;20383;-75
2022/11/16 05:24:56;;;;;;;5.78;1.77;;;15.80;95.30;;;;;;5035779;28;20463;-74
2022/11/16 05:27:23;;;;;;;8.98;2.03;;;15.70;95.20;;;;;;5035132;28;20021;-74
2022/11/16 05:29:48;;;;;;;5.43;1.77;;;15.70;95.20;;;;;;5035826;28;20021;-76
2022/11/16 05:32:14;;;;;;;9.32;2.42;;;15.70;95.30;;;;;;5036577;28;20021;-75
2022/11/16 05:34:41;;;;;;;4.18;2.00;;;15.60;95.40;;;;;;5054987;28;20037;-75
2022/11/16 05:37:07;;;;;;;11.13;2.42;;;15.60;95.50;;;;;;5053111;28;20086;-77
2022/11/16 05:39:33;;;;;;;6.97;2.13;;;15.60;95.40;;;;;;5071826;28;20089;-76
2022/11/16 05:41:58;;;;;;;9.98;2.60;;;15.70;95.40;;;;;;5063980;28;20382;-75
2022/11/16 05:44:24;;;;;;;7.85;1.98;;;15.70;95.40;;;;;;5055085;28;20429;-75
2022/11/16 05:46:50;;;;;;;8.10;2.17;;;15.70;95.40;;;;;;5052870;28;20033;-76
2022/11/16 05:49:16;;;;;;;8.50;2.60;;;15.70;95.50;;;;;;5055125;28;20021;-74
2022/11/16 05:51:44;;;;;;;8.35;2.67;;;15.70;95.40;;;;;;5055063;28;20382;-75
2022/11/16 05:54:22;;;;;;;9.63;3.55;;;15.60;95.40;;;;;;5055067;28;20044;-75
2022/11/16 05:56:49;;;;;;;8.90;3.75;;;15.40;95.60;;;;;;5053006;28;20400;-74
2022/11/16 05:59:18;;;;;;;12.05;3.28;;;15.20;95.80;;;;;;5049468;28;20385;-76
2022/11/16 06:01:45;;;;;;;6.50;2.88;;;15.00;96.10;;;;;;5046768;28;20029;-75
2022/11/16 06:04:12;;;;;;;10.35;3.05;;;14.90;96.10;;;;;;5066195;28;20036;-75
2022/11/16 06:06:39;;;;;;;10.48;3.47;;;14.90;96.20;;;;;;5052328;28;20310;-76
2022/11/16 06:09:05;;;;;;;10.48;3.42;;;14.90;96.30;;;;;;5044602;28;20013;-77
2022/11/16 06:11:31;;;;;;;17.42;3.80;;;14.80;96.30;;;;;;5055434;28;20032;-76
2022/11/16 06:13:57;;;;;;;8.85;3.22;;;15.20;95.50;;;;;;5051057;28;20099;-79
2022/11/16 06:16:22;;;;;;;8.98;2.45;;;15.50;94.00;;;;;;5050795;28;20056;-79
2022/11/16 06:18:48;;;;;;;9.90;3.00;;;15.70;93.50;;;;;;5049916;28;20017;-76
2022/11/16 06:21:15;;;;;;;8.20;2.58;;;15.60;93.40;;;;;;5059010;28;20112;-76
2022/11/16 06:23:41;;;;;;;6.18;2.40;;;15.60;93.40;;;;;;5048132;28;20025;-75
2022/11/16 06:26:08;;;;;;;10.65;2.97;;;15.60;93.40;;;;;;5040380;28;20032;-76
2022/11/16 06:28:34;;;;;;;11.23;2.47;;;15.70;93.20;;;;;;5038266;28;20116;-73
2022/11/16 06:30:59;;;;;;;15.95;3.08;;;15.60;93.40;;;;;;5049729;28;20029;-74
2022/11/16 06:33:25;;;;;;;10.05;2.33;;;15.70;93.40;;;;;;5052098;28;20033;-75
2022/11/16 06:35:51;;;;;;;10.20;2.67;;;15.70;93.90;;;;;;5053860;28;20032;-73
2022/11/16 06:38:17;;;;;;;9.63;2.20;;;15.70;93.50;;;;;;5054004;28;20013;-73
2022/11/16 06:40:44;;;;;;;10.20;2.38;;;15.70;93.10;;;;;;5053521;28;20055;-75
2022/11/16 06:43:10;;;;;;;13.60;2.65;;;15.70;93.20;;;;;;5048378;28;20043;-73
2022/11/16 06:45:36;;;;;;;7.97;1.95;;;15.70;93.90;;;;;;5051246;28;20033;-75
2022/11/16 06:48:01;;;;;;;8.07;2.38;;;15.60;94.10;;;;;;5050026;28;20040;-73
2022/11/16 06:50:27;;;;;;;13.40;2.20;;;15.60;94.40;;;;;;5062831;28;20042;-74
2022/11/16 06:52:52;;;;;;;9.13;2.00;;;15.70;94.70;;;;;;5057887;28;20385;-76
2022/11/16 06:55:18;;;;;;;10.73;2.38;;;15.70;94.60;;;;;;5066149;28;20102;-73
2022/11/16 06:57:45;;;;;;;9.73;2.28;;;15.80;94.60;;;;;;5059783;28;20032;-75
2022/11/16 07:00:11;;;;;;;12.18;3.13;;;15.80;94.30;;;;;;5054001;28;20108;-76
2022/11/16 07:02:37;;;;;;;12.52;2.65;;;15.80;94.30;;;;;;5069557;28;20033;-73
2022/11/16 07:05:04;;;;;;;10.75;1.88;;;15.80;94.20;;;;;;5052227;28;20079;-75
2022/11/16 07:07:29;;;;;;;9.23;2.13;;;15.90;93.80;;;;;;5055508;28;20078;-72
2022/11/16 07:09:55;;;;;;;11.43;2.17;;;15.90;93.60;;;;;;5038345;28;20033;-73
2022/11/16 07:12:20;;;;;;;12.60;2.60;;;16.00;93.40;;;;;;5048966;28;20017;-74
2022/11/16 07:14:46;;;;;;;8.82;2.53;;;16.00;93.30;;;;;;5051787;28;20482;-72
2022/11/16 07:17:11;;;;;;;8.75;2.20;;;16.00;93.60;;;;;;5051619;28;20021;-74
2022/11/16 07:19:37;;;;;;;10.57;2.50;;;16.00;93.50;;;;;;5052953;28;20017;-71
2022/11/16 07:22:03;;;;;;;10.90;2.25;;;16.00;93.20;;;;;;5052207;28;20378;-72
2022/11/16 07:24:28;;;;;;;8.05;2.75;;;16.00;93.50;;;;;;5052889;28;20028;-71
2022/11/16 07:26:54;;;;;;;8.82;2.70;;;16.00;93.90;;;;;;5052912;28;20347;-72
2022/11/16 07:29:21;;;;;;;9.52;2.08;;;16.00;93.70;;;;;;5052725;28;20036;-72
2022/11/16 07:31:46;;;;;;;9.13;2.45;;;15.90;93.60;;;;;;5053027;28;20017;-72
2022/11/16 07:34:12;;;;;;;9.18;2.58;;;16.00;93.50;;;;;;5053349;28;20039;-75
2022/11/16 07:36:38;;;;;;;11.52;2.22;;;15.90;93.50;;;;;;5053186;28;20536;-74
2022/11/16 07:39:03;;;;;;;9.43;2.55;;;15.90;93.70;;;;;;5052472;28;20036;-74
2022/11/16 07:41:29;;;;;;;10.52;1.98;;;15.90;93.80;;;;;;5051306;28;20021;-73
2022/11/16 07:43:55;;;;;;;12.80;2.08;;;15.80;94.40;;;;;;5053278;28;20029;-78
2022/11/16 07:46:22;;;;;;;6.45;1.70;;;15.90;94.10;;;;;;5053041;28;20017;-74
2022/11/16 07:48:48;;;;;;;10.77;2.13;;;15.90;93.80;;;;;;5053260;28;20535;-74
2022/11/16 07:51:15;;;;;;;8.80;2.80;;;15.80;93.90;;;;;;5053466;28;20013;-81
2022/11/16 07:53:42;;;;;;;8.65;2.50;;;15.90;93.80;;;;;;5052826;28;20040;-79
2022/11/16 07:56:09;;;;;;;9.27;2.20;;;15.90;93.60;;;;;;5052910;28;20071;-80
2022/11/16 07:58:35;;;;;;;6.35;1.80;;;15.90;93.90;;;;;;5052822;28;20029;-79
2022/11/16 08:01:05;;;;;;;11.55;3.03;;;15.80;94.00;;;;;;5052720;28;20480;-80
2022/11/16 08:03:32;;;;;;;11.52;2.25;;;15.80;93.60;;;;;;5052449;28;20033;-80
2022/11/16 08:06:00;;;;;;;9.63;2.20;;;15.80;93.80;;;;;;5052781;28;20021;-77
2022/11/16 08:08:25;;;;;;;9.45;2.20;;;15.80;93.80;;;;;;5053022;28;20025;-79
2022/11/16 08:10:51;;;;;;;8.07;1.75;;;15.80;93.70;;;;;;5052703;28;20028;-79
2022/11/16 08:13:16;;;;;;;5.57;1.52;;;15.80;94.20;;;;;;5052915;28;20025;-79
2022/11/16 08:15:42;;;;;;;9.32;1.85;;;15.80;94.10;;;;;;5052562;28;20033;-80
2022/11/16 08:18:07;;;;;;;5.97;1.67;;;15.70;94.60;;;;;;5053045;28;20025;-79
2022/11/16 08:20:35;;;;;;;12.10;2.60;;;15.80;94.00;;;;;;5052391;28;20486;-73
2022/11/16 08:23:01;;;;;;;7.28;2.05;;;15.80;94.30;;;;;;5052827;28;20029;-73
2022/11/16 08:25:26;;;;;;;9.13;2.47;;;15.90;93.70;;;;;;5051346;28;20112;-72
2022/11/16 08:27:52;;;;;;;10.70;2.13;;;16.00;93.60;;;;;;5051236;28;20017;-74
2022/11/16 08:30:17;;;;;;;7.95;2.15;;;15.90;93.70;;;;;;5052426;28;20036;-73
2022/11/16 08:32:44;;;;;;;9.82;2.20;;;15.90;93.70;;;;;;5052807;28;20033;-75
2022/11/16 08:35:10;;;;;;;9.43;2.38;;;15.90;93.80;;;;;;5052137;28;20053;-73
2022/11/16 08:37:36;;;;;;;8.35;2.67;;;15.80;94.10;;;;;;5052612;28;20100;-73
2022/11/16 08:40:02;;;;;;;5.68;1.65;;;15.80;93.80;;;;;;5052447;28;20056;-75
2022/11/16 08:42:28;;;;;;;7.45;1.42;;;15.80;93.70;;;;;;5052500;28;20017;-73
2022/11/16 08:44:53;;;;;;;8.38;1.95;;;15.80;94.40;;;;;;5055150;28;20029;-73
2022/11/16 08:47:19;;;;;;;10.43;1.95;;;15.80;94.20;;;;;;5056371;28;20021;-72
2022/11/16 08:49:45;;;;;;;7.32;2.03;;;15.80;94.10;;;;;;5056083;28;20025;-73
2022/11/16 08:52:11;;;;;;;7.25;2.03;;;15.80;94.00;;;;;;5056325;28;20104;-72
2022/11/16 08:54:36;;;;;;;7.82;1.80;;;15.80;94.40;;;;;;5056157;28;20104;-74
2022/11/16 08:57:02;;;;;;;6.43;1.83;;;15.80;94.20;;;;;;5056024;28;20052;-78
2022/11/16 08:59:28;;;;;;;7.88;1.77;;;15.80;94.40;;;;;;5056167;28;20021;-75
2022/11/16 09:01:53;;;;;;;10.13;2.58;;;15.80;94.30;;;;;;5055918;28;20028;-73
2022/11/16 09:04:19;;;;;;;8.13;2.28;;;15.80;94.10;;;;;;5054429;28;20651;-74
2022/11/16 09:06:45;;;;;;;4.90;1.90;;;15.90;94.00;;;;;;5055828;28;20037;-73
2022/11/16 09:09:10;;;;;;;6.05;2.53;;;15.90;94.10;;;;;;5056349;28;20481;-73
2022/11/16 09:11:36;;;;;;;8.25;1.75;;;15.80;94.50;;;;;;5055925;28;20052;-74
2022/11/16 09:14:02;;;;;;;7.75;1.77;;;15.80;94.40;;;;;;5055879;28;20063;-73
2022/11/16 09:16:28;;;;;;;10.15;1.95;;;15.80;94.10;;;;;;5055576;28;20497;-75
2022/11/16 09:18:54;;;;;;;8.52;1.98;;;15.90;94.00;;;;;;5055456;28;20078;-73
2022/11/16 09:21:25;;;;;;;7.40;1.90;;;15.80;94.50;;;;;;5055810;28;20033;-76
2022/11/16 09:23:52;;;;;;;4.95;1.45;;;15.80;94.40;;;;;;5055980;28;20021;-73
2022/11/16 09:26:21;;;;;;;5.22;1.52;;;15.80;94.40;;;;;;5055550;28;20021;-72
2022/11/16 09:28:54;;;;;;;5.57;1.40;;;15.80;94.60;;;;;;5056827;28;20032;-73
2022/11/16 09:31:21;;;;;;;6.90;1.17;;;15.80;95.10;;;;;;5058358;28;20060;-73
2022/11/16 09:33:46;;;;;;;4.78;1.60;;;15.90;94.80;;;;;;5057598;28;20056;-74
2022/11/16 09:36:12;;;;;;;7.35;1.60;;;15.90;94.90;;;;;;5055758;28;20398;-75
2022/11/16 09:38:43;;;;;;;7.32;1.58;;;15.90;94.80;;;;;;5055510;28;20086;-77
2022/11/16 09:41:15;;;;;;;6.30;1.88;;;15.90;94.80;;;;;;5055536;28;20025;-75
2022/11/16 09:43:59;;;;;;;3.83;1.73;;;16.00;94.80;;;;;;5054227;28;20036;-75
2022/11/16 09:46:30;;;;;;;8.98;1.85;;;16.00;94.80;;;;;;5053848;28;20021;-73
2022/11/16 09:48:59;;;;;;;8.75;1.40;;;16.00;94.80;;;;;;5055087;28;20033;-73
2022/11/16 09:51:31;;;;;;;5.93;1.55;;;16.00;94.60;;;;;;5055237;28;20374;-74
2022/11/16 09:54:02;;;;;;;4.95;1.63;;;16.10;94.60;;;;;;5055075;28;20028;-72
2022/11/16 09:56:30;;;;;;;6.40;1.77;;;16.10;94.70;;;;;;5053833;28;20036;-73
2022/11/16 09:59:08;;;;;;;6.75;1.40;;;16.00;94.60;;;;;;5055085;28;20544;-72
2022/11/16 10:01:46;;;;;;;9.20;1.58;;;16.10;94.50;;;;;;5055059;28;20057;-73
2022/11/16 10:04:25;;;;;;;7.85;1.92;;;16.10;94.60;;;;;;5053673;28;20079;-73
2022/11/16 10:07:07;;;;;;;7.32;1.35;;;16.10;94.60;;;;;;5054608;28;20025;-79
2022/11/16 10:09:34;;;;;;;3.95;1.88;;;16.10;94.60;;;;;;5054960;28;20024;-77
2022/11/16 10:12:11;;;;;;;7.50;2.40;;;16.20;94.40;;;;;;5054783;28;20037;-73
2022/11/16 10:14:52;;;;;;;8.40;1.67;;;16.10;94.30;;;;;;5054769;28;20108;-74
2022/11/16 10:17:23;;;;;;;4.43;1.48;;;16.20;94.30;;;;;;5054453;28;20025;-77
2022/11/16 10:20:09;;;;;;;6.68;1.75;;;16.20;94.30;;;;;;5054901;28;20029;-76
2022/11/16 10:22:50;;;;;;;5.97;1.80;;;16.20;94.40;;;;;;5054469;28;20095;-73
2022/11/16 10:25:21;;;;;;;5.63;1.20;;;16.20;94.40;;;;;;5054914;28;20033;-73
2022/11/16 10:27:58;;;;;;;4.63;1.13;;;16.20;94.30;;;;;;5054938;28;20041;-74
2022/11/16 10:30:24;;;;;;;5.97;2.05;;;16.20;94.40;;;;;;5055212;28;20489;-73
2022/11/16 10:32:58;;;;;;;5.78;1.48;;;16.20;94.30;;;;;;5054577;28;20517;-74
2022/11/16 10:35:35;;;;;;;6.55;1.40;;;16.20;94.30;;;;;;5053793;28;20067;-72
2022/11/16 10:38:04;;;;;;;7.47;1.65;;;16.20;94.20;;;;;;5054735;28;20021;-73
2022/11/16 10:40:40;;;;;;;10.32;2.53;;;16.20;94.10;;;;;;5054922;28;20036;-79
2022/11/16 10:43:19;;;;;;;8.68;1.90;;;16.30;94.00;;;;;;5054160;28;20028;-73
2022/11/16 10:45:59;;;;;;;5.60;1.38;;;16.20;94.20;;;;;;5053849;28;20047;-79
2022/11/16 10:48:30;;;;;;;9.75;1.77;;;16.20;94.30;;;;;;5053936;28;20025;-74
2022/11/16 10:50:56;;;;;;;4.30;1.40;;;16.20;94.30;;;;;;5054089;28;20036;-74
2022/11/16 10:53:28;;;;;;;5.82;1.45;;;16.30;94.20;;;;;;5054092;28;20025;-80
2022/11/16 10:56:10;;;;;;;6.35;1.55;;;16.30;94.20;;;;;;5053790;28;20230;-75
2022/11/16 10:58:48;;;;;;;5.53;1.13;;;16.20;94.30;;;;;;5052644;28;20020;-73
2022/11/16 11:01:27;;;;;;;8.50;1.98;;;16.20;94.20;;;;;;5053583;28;20060;-77
2022/11/16 11:03:52;;;;;;;5.18;1.40;;;16.30;94.30;;;;;;5053044;28;20382;-75
2022/11/16 11:06:19;;;;;;;5.95;1.80;;;16.30;94.30;;;;;;5053332;28;20029;-81
2022/11/16 11:08:44;;;;;;;5.38;1.58;;;16.30;94.30;;;;;;5052932;28;20040;-74
2022/11/16 11:14:09;;;;;;;6.55;2.15;;;16.30;94.30;;;;;;5053680;28;20390;-78
2022/11/16 11:16:35;;;;;;;4.95;1.90;;;16.30;94.30;;;;;;5053327;28;20059;-73
2022/11/16 11:19:24;;;;;;;7.72;2.63;;;16.30;94.40;;;;;;5052708;28;20108;-77
2022/11/16 11:21:54;;;;;;;6.07;2.25;;;16.30;94.30;;;;;;5052158;28;20099;-74
2022/11/16 11:24:19;;;;;;;4.40;1.85;;;16.40;94.10;;;;;;5053252;28;20489;-78
2022/11/16 11:26:52;;;;;;;9.80;2.05;;;16.40;94.20;;;;;;5055148;28;20029;-79
2022/11/16 11:29:29;;;;;;;6.95;2.03;;;16.30;94.20;;;;;;5051213;28;20100;-76
2022/11/16 11:32:00;;;;;;;8.82;1.80;;;16.40;94.20;;;;;;5052813;28;20024;-81
2022/11/16 11:34:31;;;;;;;8.35;2.22;;;16.40;94.10;;;;;;5048373;28;20470;-80
2022/11/16 11:37:05;;;;;;;9.57;2.80;;;16.40;94.10;;;;;;5033066;28;20466;-81
2022/11/16 11:39:35;;;;;;;11.50;3.15;;;16.40;94.00;;;;;;5047684;28;20656;-78
2022/11/16 11:42:18;;;;;;;7.80;1.77;;;16.40;94.10;;;;;;5048558;28;20029;-75
2022/11/16 11:44:56;;;;;;;8.00;1.85;;;16.40;94.10;;;;;;5048619;28;20044;-80
2022/11/16 11:47:44;;;;;;;5.57;1.60;;;16.40;94.10;;;;;;5056052;28;20067;-80
2022/11/16 11:50:15;;;;;;;7.05;2.08;;;16.40;94.10;;;;;;5048169;28;20033;-80
2022/11/16 11:53:06;;;;;;;6.40;2.10;;;16.40;94.20;;;;;;5056496;28;20059;-77
2022/11/16 11:55:32;;;;;;;7.95;2.15;;;16.40;94.30;;;;;;5051393;28;20095;-80
2022/11/16 11:58:00;;;;;;;9.65;2.90;;;16.40;94.40;;;;;;5051095;28;20035;-80
2022/11/16 12:00:28;;;;;;;13.63;3.60;;;16.40;94.30;;;;;;5051671;28;20029;-79
2022/11/16 12:03:31;;;;;;;22.15;6.60;;;16.40;94.90;;;;;;5050312;28;20017;-79
2022/11/16 12:06:17;;;;;;;16.70;5.30;;;16.40;96.10;;;;;;5049142;28;20045;-81
2022/11/16 12:09:09;;;;;;;16.88;5.03;;;16.50;96.60;;;;;;5052784;28;20025;-81
2022/11/16 12:11:53;;;;;;;15.13;4.95;;;16.60;96.50;;;;;;5041884;28;20502;-79
2022/11/16 12:14:31;;;;;;;22.60;4.32;;;16.60;96.30;;;;;;5049742;28;20021;-79
2022/11/16 12:17:26;;;;;;;9.88;2.25;;;16.60;96.30;;;;;;5068404;28;20039;-74
2022/11/16 12:20:06;;;;;;;16.25;3.55;;;16.60;95.60;;;;;;5061838;28;20489;-74
2022/11/16 12:22:35;;;;;;;20.73;6.18;;;16.60;96.00;;;;;;5049833;28;20029;-75
2022/11/16 12:25:29;;;;;;;18.33;3.90;;;16.60;97.10;;;;;;5053539;28;20037;-73
2022/11/16 12:28:30;;;;;;;13.57;3.90;;;16.60;97.10;;;;;;5052627;28;20028;-71
2022/11/16 12:31:46;;;;;;;13.45;4.28;;;16.70;97.40;;;;;;5029706;28;20082;-71
2022/11/16 12:34:22;;;;;;;24.13;9.50;;;16.70;97.10;;;;;;5031465;28;20048;-72
2022/11/16 12:37:14;;;;;;;35.35;12.93;;;16.70;97.20;;;;;;5065015;28;20040;-72
2022/11/16 12:39:47;;;;;;;25.80;8.50;;;16.70;97.00;;;;;;5055232;28;20052;-71
2022/11/16 12:42:36;;;;;;;22.27;5.72;;;16.80;96.40;;;;;;5047792;28;20279;-70
2022/11/16 12:45:17;;;;;;;11.65;3.85;;;16.70;96.20;;;;;;5050108;28;20035;-71
2022/11/16 12:48:05;;;;;;;11.85;3.35;;;16.70;96.00;;;;;;5045185;28;20017;-71
2022/11/16 12:50:58;;;;;;;10.75;2.85;;;16.70;96.10;;;;;;5056171;28;21552;-72
2022/11/16 12:53:48;;;;;;;7.43;3.05;;;16.70;96.00;;;;;;5053659;28;20025;-73
2022/11/16 12:56:50;;;;;;;10.57;2.78;;;16.70;96.00;;;;;;5035502;28;20061;-76
2022/11/16 12:59:33;;;;;;;13.50;2.85;;;16.70;95.90;;;;;;5054108;28;20032;-77
2022/11/16 13:02:23;;;;;;;;;;;16.70;95.90;;;;;;5055723;28;20025;-73
2022/11/16 13:04:57;;;;;;;14.50;2.38;;;16.80;95.80;;;;;;5042510;28;19940;-77
2022/11/16 13:07:45;;;;;;;11.82;2.88;;;16.70;95.90;;;;;;5040244;28;20041;-78
2022/11/16 13:10:16;;;;;;;11.77;2.70;;;16.70;96.10;;;;;;5037699;28;20394;-74
2022/11/16 13:12:46;;;;;;;12.47;2.53;;;16.70;96.00;;;;;;5044758;28;20040;-77
2022/11/16 13:15:18;;;;;;;10.07;3.30;;;16.70;96.20;;;;;;5042147;28;20071;-77
2022/11/16 13:17:51;;;;;;;10.02;2.85;;;16.70;96.50;;;;;;5051498;28;20028;-78
2022/11/16 13:20:37;;;;;;;9.50;2.78;;;16.70;96.30;;;;;;5046371;28;20024;-78
2022/11/16 13:23:12;;;;;;;10.77;2.50;;;16.70;96.20;;;;;;5050892;28;20425;-75
2022/11/16 13:25:55;;;;;;;9.30;2.88;;;16.70;96.20;;;;;;5054265;28;20107;-77
2022/11/16 13:28:27;;;;;;;;;;;16.70;96.30;;;;;;5035396;28;20041;-76
2022/11/16 13:30:59;;;;;;;5.55;1.98;;;16.70;96.10;;;;;;5037416;28;19963;-74
2022/11/16 13:33:48;;;;;;;15.48;3.08;;;16.70;96.10;;;;;;5061434;28;20671;-75
2022/11/16 13:36:36;;;;;;;12.48;2.83;;;16.70;96.10;;;;;;5070772;28;20091;-76
2022/11/16 13:39:03;;;;;;;9.98;2.53;;;16.70;96.20;;;;;;5035270;28;20045;-74
2022/11/16 13:41:45;;;;;;;8.80;2.65;;;16.70;95.80;;;;;;5037904;28;20123;-75
2022/11/16 13:44:13;;;;;;;7.97;2.50;;;16.70;95.80;;;;;;5074103;28;20043;-76